Time,TemperatureF,DewpointF,PressureIn,WindDirection,WindDirectionDegrees,WindSpeedMPH,WindSpeedGustMPH,Humidity,HourlyPrecipIn,Conditions,Clouds,dailyrainin,SoftwareType,DateUTC
2013-02-18 00:00:00,19.3,17.9,29.57,South,173,3.0,7.0,94,0.00,,OVC095,0.00,VWS V14.01,2013-02-18 05:00:00,
2013-02-18 00:05:00,19.2,17.8,29.57,South,172,6.0,7.0,94,0.00,,BKN100,0.00,VWS V14.01,2013-02-18 05:05:00,
2013-02-18 00:10:00,19.2,17.8,29.57,North,349,3.0,5.0,94,0.00,,BKN100,0.00,VWS V14.01,2013-02-18 05:10:00,
2013-02-18 00:15:00,19.1,17.7,29.57,South,183,0.0,1.0,94,0.00,,BKN100,0.00,VWS V14.01,2013-02-18 05:15:00,
2013-02-18 00:20:00,19.0,17.6,29.58,North,5,9.0,9.0,94,0.00,,BKN100,0.00,VWS V14.01,2013-02-18 05:20:00,
2013-02-18 00:25:00,19.0,17.6,29.58,South,186,2.0,4.0,94,0.00,,BKN100,0.00,VWS V14.01,2013-02-18 05:25:00,
2013-02-18 00:30:00,18.9,17.5,29.58,South,175,0.0,0.0,94,0.00,,BKN100,0.00,VWS V14.01,2013-02-18 05:30:00,
2013-02-18 00:35:00,18.9,17.5,29.59,WSW,240,1.0,2.0,94,0.00,,BKN100,0.00,VWS V14.01,2013-02-18 05:35:00,
2013-02-18 00:40:00,18.9,17.5,29.58,South,169,0.0,2.0,94,0.00,,BKN100,0.00,VWS V14.01,2013-02-18 05:40:00,
2013-02-18 00:45:00,18.8,17.4,29.58,South,180,3.0,3.0,94,0.00,,BKN100,0.00,VWS V14.01,2013-02-18 05:45:00,
2013-02-18 00:50:00,18.8,17.4,29.59,SSW,194,1.0,3.0,94,0.00,,BKN100,0.00,VWS V14.01,2013-02-18 05:50:00,
2013-02-18 00:55:00,18.7,17.3,29.59,South,191,0.0,2.0,94,0.00,,BKN100,0.00,VWS V14.01,2013-02-18 05:55:00,
2013-02-18 01:00:00,18.7,17.3,29.59,South,178,0.0,5.0,94,0.00,,BKN100,0.00,VWS V14.01,2013-02-18 06:00:00,
2013-02-18 01:05:00,18.6,17.2,29.59,South,173,5.0,8.0,94,0.00,,BKN100,0.00,VWS V14.01,2013-02-18 06:05:00,
2013-02-18 01:10:00,18.6,17.2,29.59,SSE,166,1.0,4.0,94,0.00,,FEW110,0.00,VWS V14.01,2013-02-18 06:10:00,
2013-02-18 01:15:00,18.5,17.1,29.59,South,177,2.0,2.0,94,0.00,,FEW110,0.00,VWS V14.01,2013-02-18 06:15:00,
2013-02-18 01:20:00,18.5,17.1,29.60,NNW,330,0.0,2.0,94,0.00,,FEW110,0.00,VWS V14.01,2013-02-18 06:20:00,
2013-02-18 01:25:00,18.5,17.1,29.60,South,186,5.0,9.0,94,0.00,,FEW110,0.00,VWS V14.01,2013-02-18 06:25:00,
2013-02-18 01:30:00,18.4,17.0,29.60,South,180,0.0,2.0,94,0.00,,FEW110,0.00,VWS V14.01,2013-02-18 06:30:00,
2013-02-18 01:35:00,18.4,17.0,29.60,SSE,159,2.0,2.0,94,0.00,,FEW110,0.00,VWS V14.01,2013-02-18 06:35:00,
2013-02-18 01:40:00,18.3,16.9,29.60,NNE,33,2.0,2.0,94,0.00,,FEW110,0.00,VWS V14.01,2013-02-18 06:40:00,
2013-02-18 01:45:00,18.3,16.9,29.60,South,175,12.0,12.0,94,0.00,,FEW110,0.00,VWS V14.01,2013-02-18 06:45:00,
2013-02-18 01:50:00,18.2,16.5,29.60,South,180,1.0,3.0,93,0.00,,FEW110,0.00,VWS V14.01,2013-02-18 06:50:00,
2013-02-18 01:55:00,18.2,16.5,29.60,South,180,4.0,4.0,93,0.00,,FEW110,0.00,VWS V14.01,2013-02-18 06:55:00,
2013-02-18 02:00:00,18.1,16.4,29.60,SSW,200,3.0,16.0,93,0.00,,SCT110,0.00,VWS V14.01,2013-02-18 07:00:00,
2013-02-18 02:05:00,18.1,16.4,29.60,South,182,4.0,6.0,93,0.00,,SCT110,0.00,VWS V14.01,2013-02-18 07:05:00,
2013-02-18 02:10:00,18.0,16.3,29.61,SE,146,3.0,7.0,93,0.00,,SCT110,0.00,VWS V14.01,2013-02-18 07:10:00,
2013-02-18 02:15:00,18.0,16.3,29.61,South,181,3.0,5.0,93,0.00,,SCT110,0.00,VWS V14.01,2013-02-18 07:15:00,
2013-02-18 02:20:00,17.9,16.2,29.61,South,175,5.0,5.0,93,0.00,,SCT110,0.00,VWS V14.01,2013-02-18 07:20:00,
2013-02-18 02:25:00,17.9,16.2,29.62,SSE,155,3.0,10.0,93,0.00,,SCT110,0.00,VWS V14.01,2013-02-18 07:25:00,
2013-02-18 02:30:00,17.9,16.2,29.62,South,178,1.0,2.0,93,0.00,,SCT110,0.00,VWS V14.01,2013-02-18 07:30:00,
2013-02-18 02:35:00,17.8,16.4,29.62,WNW,300,1.0,2.0,94,0.00,,SCT110,0.00,VWS V14.01,2013-02-18 07:35:00,
2013-02-18 02:40:00,17.7,16.3,29.63,South,170,2.0,3.0,94,0.00,,SCT110,0.00,VWS V14.01,2013-02-18 07:40:00,
2013-02-18 02:45:00,17.7,16.3,29.63,WSW,258,0.0,1.0,94,0.00,,SCT110,0.00,VWS V14.01,2013-02-18 07:45:00,
2013-02-18 02:50:00,17.7,16.0,29.63,South,175,0.0,1.0,93,0.00,,SCT110,0.00,VWS V14.01,2013-02-18 07:50:00,
2013-02-18 02:55:00,17.7,16.0,29.64,SE,130,2.0,6.0,93,0.00,,SCT110,0.00,VWS V14.01,2013-02-18 07:55:00,
2013-02-18 03:00:00,17.6,15.9,29.63,WNW,295,3.0,10.0,93,0.00,,BKN110,0.00,VWS V14.01,2013-02-18 08:00:00,
2013-02-18 03:05:00,17.6,15.9,29.63,South,181,2.0,4.0,93,0.00,,BKN110,0.00,VWS V14.01,2013-02-18 08:05:00,
2013-02-18 03:10:00,17.5,15.8,29.64,South,178,4.0,5.0,93,0.00,,BKN110,0.00,VWS V14.01,2013-02-18 08:10:00,
2013-02-18 03:15:00,17.5,15.8,29.64,SSE,163,3.0,6.0,93,0.00,,BKN110,0.00,VWS V14.01,2013-02-18 08:15:00,
2013-02-18 03:20:00,17.5,15.8,29.64,South,184,1.0,2.0,93,0.00,,BKN110,0.00,VWS V14.01,2013-02-18 08:20:00,
2013-02-18 03:25:00,17.4,15.7,29.64,South,176,3.0,10.0,93,0.00,,BKN110,0.00,VWS V14.01,2013-02-18 08:25:00,
2013-02-18 03:30:00,17.4,15.7,29.64,South,183,0.0,3.0,93,0.00,,BKN110,0.00,VWS V14.01,2013-02-18 08:30:00,
2013-02-18 03:35:00,17.3,15.6,29.65,SSE,155,0.0,1.0,93,0.00,,BKN110,0.00,VWS V14.01,2013-02-18 08:35:00,
2013-02-18 03:40:00,17.3,15.6,29.65,South,175,1.0,2.0,93,0.00,,BKN110,0.00,VWS V14.01,2013-02-18 08:40:00,
2013-02-18 03:45:00,17.2,15.5,29.65,South,176,0.0,0.0,93,0.00,,BKN110,0.00,VWS V14.01,2013-02-18 08:45:00,
2013-02-18 03:50:00,17.2,15.5,29.65,South,175,4.0,4.0,93,0.00,,BKN110,0.00,VWS V14.01,2013-02-18 08:50:00,
2013-02-18 03:55:00,17.1,15.4,29.66,NNE,17,2.0,3.0,93,0.00,,BKN110,0.00,VWS V14.01,2013-02-18 08:55:00,
2013-02-18 04:00:00,17.1,15.4,29.66,South,175,0.0,1.0,93,0.00,,CLR,0.00,VWS V14.01,2013-02-18 09:00:00,
2013-02-18 04:05:00,17.1,15.4,29.66,South,181,0.0,0.0,93,0.00,,CLR,0.00,VWS V14.01,2013-02-18 09:05:00,
2013-02-18 04:10:00,17.1,15.4,29.67,South,175,2.0,4.0,93,0.00,,CLR,0.00,VWS V14.01,2013-02-18 09:10:00,
2013-02-18 04:15:00,17.0,15.3,29.67,SSE,159,4.0,7.0,93,0.00,,CLR,0.00,VWS V14.01,2013-02-18 09:15:00,
2013-02-18 04:20:00,17.0,15.3,29.67,SSE,162,4.0,6.0,93,0.00,,CLR,0.00,VWS V14.01,2013-02-18 09:20:00,
2013-02-18 04:25:00,17.0,15.3,29.67,North,355,5.0,7.0,93,0.00,,CLR,0.00,VWS V14.01,2013-02-18 09:25:00,
2013-02-18 04:30:00,16.9,15.2,29.68,South,169,5.0,7.0,93,0.00,,CLR,0.00,VWS V14.01,2013-02-18 09:30:00,
2013-02-18 04:35:00,16.9,15.2,29.68,South,173,1.0,2.0,93,0.00,,CLR,0.00,VWS V14.01,2013-02-18 09:35:00,
2013-02-18 04:40:00,16.8,15.1,29.69,SSE,156,1.0,1.0,93,0.00,,CLR,0.00,VWS V14.01,2013-02-18 09:40:00,
2013-02-18 04:45:00,16.8,15.1,29.69,South,172,2.0,2.0,93,0.00,,CLR,0.00,VWS V14.01,2013-02-18 09:45:00,
2013-02-18 04:50:00,16.8,15.1,29.69,NE,52,0.0,0.0,93,0.00,,CLR,0.00,VWS V14.01,2013-02-18 09:50:00,
2013-02-18 04:55:00,16.7,15.0,29.69,South,184,7.0,7.0,93,0.00,,CLR,0.00,VWS V14.01,2013-02-18 09:55:00,
2013-02-18 05:00:00,16.7,15.0,29.70,South,178,0.0,2.0,93,0.00,,CLR,0.00,VWS V14.01,2013-02-18 10:00:00,
2013-02-18 05:05:00,16.7,15.0,29.70,SSE,168,1.0,1.0,93,0.00,,CLR,0.00,VWS V14.01,2013-02-18 10:05:00,
2013-02-18 05:10:00,16.6,14.9,29.70,South,178,0.0,2.0,93,0.00,,CLR,0.00,VWS V14.01,2013-02-18 10:10:00,
2013-02-18 05:15:00,16.6,14.9,29.71,NNW,344,0.0,0.0,93,0.00,,CLR,0.00,VWS V14.01,2013-02-18 10:15:00,
2013-02-18 05:20:00,16.5,14.8,29.71,SSE,167,0.0,2.0,93,0.00,,CLR,0.00,VWS V14.01,2013-02-18 10:20:00,
2013-02-18 05:25:00,16.5,14.8,29.71,South,177,1.0,4.0,93,0.00,,CLR,0.00,VWS V14.01,2013-02-18 10:25:00,
2013-02-18 05:30:00,16.4,14.7,29.72,South,180,0.0,1.0,93,0.00,,CLR,0.00,VWS V14.01,2013-02-18 10:30:00,
2013-02-18 05:35:00,16.4,14.7,29.72,NNW,348,1.0,3.0,93,0.00,,CLR,0.00,VWS V14.01,2013-02-18 10:35:00,
2013-02-18 05:40:00,16.3,14.6,29.73,SSE,159,5.0,6.0,93,0.00,,CLR,0.00,VWS V14.01,2013-02-18 10:40:00,
2013-02-18 05:45:00,16.3,14.6,29.73,SSE,166,0.0,0.0,93,0.00,,CLR,0.00,VWS V14.01,2013-02-18 10:45:00,
2013-02-18 05:50:00,16.2,14.5,29.73,SSE,150,4.0,4.0,93,0.00,,CLR,0.00,VWS V14.01,2013-02-18 10:50:00,
2013-02-18 05:55:00,16.2,14.5,29.74,North,355,3.0,3.0,93,0.00,,CLR,0.00,VWS V14.01,2013-02-18 10:55:00,
2013-02-18 06:00:00,16.2,14.5,29.74,SW,217,3.0,6.0,93,0.00,,CLR,0.00,VWS V14.01,2013-02-18 11:00:00,
2013-02-18 06:05:00,16.1,14.4,29.74,North,5,4.0,4.0,93,0.00,,CLR,0.00,VWS V14.01,2013-02-18 11:05:00,
2013-02-18 06:10:00,16.1,14.4,29.74,South,180,0.0,3.0,93,0.00,,CLR,0.00,VWS V14.01,2013-02-18 11:10:00,
2013-02-18 06:15:00,16.1,14.4,29.75,South,180,5.0,5.0,93,0.00,,CLR,0.00,VWS V14.01,2013-02-18 11:15:00,
2013-02-18 06:20:00,16.0,14.3,29.75,SSE,167,1.0,4.0,93,0.00,,CLR,0.00,VWS V14.01,2013-02-18 11:20:00,
2013-02-18 06:25:00,16.0,14.3,29.75,SSE,168,2.0,4.0,93,0.00,,CLR,0.00,VWS V14.01,2013-02-18 11:25:00,
2013-02-18 06:30:00,15.9,14.2,29.76,North,355,2.0,3.0,93,0.00,,CLR,0.00,VWS V14.01,2013-02-18 11:30:00,
2013-02-18 06:35:00,15.9,14.2,29.76,North,355,0.0,4.0,93,0.00,,CLR,0.00,VWS V14.01,2013-02-18 11:35:00,
2013-02-18 06:40:00,15.9,14.2,29.76,SSW,204,1.0,1.0,93,0.00,,CLR,0.00,VWS V14.01,2013-02-18 11:40:00,
2013-02-18 06:45:00,15.8,14.1,29.77,SSE,162,0.0,0.0,93,0.00,,CLR,0.00,VWS V14.01,2013-02-18 11:45:00,
2013-02-18 06:50:00,15.8,14.1,29.77,SSE,161,1.0,4.0,93,0.00,,CLR,0.00,VWS V14.01,2013-02-18 11:50:00,
2013-02-18 06:55:00,15.8,14.1,29.78,South,183,1.0,1.0,93,0.00,,CLR,0.00,VWS V14.01,2013-02-18 11:55:00,
2013-02-18 07:00:00,15.7,14.0,29.78,ENE,76,0.0,2.0,93,0.00,,CLR,0.00,VWS V14.01,2013-02-18 12:00:00,
2013-02-18 07:05:00,15.7,14.0,29.78,South,182,4.0,6.0,93,0.00,,CLR,0.00,VWS V14.01,2013-02-18 12:05:00,
2013-02-18 07:10:00,15.7,14.0,29.78,South,180,1.0,2.0,93,0.00,,CLR,0.00,VWS V14.01,2013-02-18 12:10:00,
2013-02-18 07:15:00,15.6,13.9,29.79,South,169,2.0,6.0,93,0.00,,CLR,0.00,VWS V14.01,2013-02-18 12:15:00,
2013-02-18 07:20:00,15.6,13.9,29.80,South,176,3.0,5.0,93,0.00,,CLR,0.00,VWS V14.01,2013-02-18 12:20:00,
2013-02-18 07:25:00,15.5,13.8,29.80,South,173,0.0,0.0,93,0.00,,CLR,0.00,VWS V14.01,2013-02-18 12:25:00,
2013-02-18 07:30:00,15.5,13.8,29.80,South,173,2.0,9.0,93,0.00,,CLR,0.00,VWS V14.01,2013-02-18 12:30:00,
2013-02-18 07:35:00,15.5,13.8,29.80,South,184,4.0,4.0,93,0.00,,CLR,0.00,VWS V14.01,2013-02-18 12:35:00,
2013-02-18 07:40:00,15.4,13.7,29.80,North,360,0.0,3.0,93,0.00,,CLR,0.00,VWS V14.01,2013-02-18 12:40:00,
2013-02-18 07:45:00,15.4,13.7,29.81,South,178,4.0,7.0,93,0.00,,CLR,0.00,VWS V14.01,2013-02-18 12:45:00,
2013-02-18 07:50:00,15.4,13.7,29.82,SSE,163,0.0,1.0,93,0.00,,CLR,0.00,VWS V14.01,2013-02-18 12:50:00,
2013-02-18 07:55:00,15.3,13.6,29.81,WNW,301,0.0,3.0,93,0.00,,CLR,0.00,VWS V14.01,2013-02-18 12:55:00,
2013-02-18 08:00:00,15.3,13.6,29.82,South,184,0.0,1.0,93,0.00,,CLR,0.00,VWS V14.01,2013-02-18 13:00:00,
2013-02-18 08:05:00,15.3,13.6,29.82,South,171,0.0,0.0,93,0.00,,CLR,0.00,VWS V14.01,2013-02-18 13:05:00,
2013-02-18 08:10:00,15.3,13.6,29.82,SSE,168,2.0,3.0,93,0.00,,CLR,0.00,VWS V14.01,2013-02-18 13:10:00,
2013-02-18 08:15:00,15.3,13.6,29.83,South,178,2.0,5.0,93,0.00,,CLR,0.00,VWS V14.01,2013-02-18 13:15:00,
2013-02-18 08:20:00,15.3,13.6,29.83,North,360,2.0,4.0,93,0.00,,CLR,0.00,VWS V14.01,2013-02-18 13:20:00,
2013-02-18 08:25:00,15.2,13.5,29.83,South,188,0.0,1.0,93,0.00,,CLR,0.00,VWS V14.01,2013-02-18 13:25:00,
2013-02-18 08:30:00,15.2,13.5,29.83,South,173,1.0,7.0,93,0.00,,CLR,0.00,VWS V14.01,2013-02-18 13:30:00,
2013-02-18 08:35:00,15.2,13.5,29.84,NNE,16,2.0,2.0,93,0.00,,CLR,0.00,VWS V14.01,2013-02-18 13:35:00,
2013-02-18 08:40:00,15.2,13.5,29.83,South,178,3.0,3.0,93,0.00,,CLR,0.00,VWS V14.01,2013-02-18 13:40:00,
2013-02-18 08:45:00,15.2,13.5,29.83,SSE,168,1.0,4.0,93,0.00,,CLR,0.00,VWS V14.01,2013-02-18 13:45:00,
2013-02-18 08:50:00,15.2,13.5,29.84,South,178,3.0,4.0,93,0.00,,CLR,0.00,VWS V14.01,2013-02-18 13:50:00,
2013-02-18 08:55:00,15.2,13.5,29.84,SSE,166,2.0,5.0,93,0.00,,CLR,0.00,VWS V14.01,2013-02-18 13:55:00,
2013-02-18 09:00:00,15.2,13.5,29.84,South,181,0.0,0.0,93,0.00,,CLR,0.00,VWS V14.01,2013-02-18 14:00:00,
2013-02-18 09:05:00,15.2,13.5,29.84,South,188,3.0,3.0,93,0.00,,CLR,0.00,VWS V14.01,2013-02-18 14:05:00,
2013-02-18 09:10:00,15.2,13.5,29.84,ENE,75,1.0,3.0,93,0.00,,CLR,0.00,VWS V14.01,2013-02-18 14:10:00,
2013-02-18 09:15:00,15.2,13.5,29.84,South,180,1.0,3.0,93,0.00,,CLR,0.00,VWS V14.01,2013-02-18 14:15:00,
2013-02-18 09:20:00,15.2,13.5,29.84,South,186,4.0,6.0,93,0.00,,CLR,0.00,VWS V14.01,2013-02-18 14:20:00,
2013-02-18 09:25:00,15.2,13.5,29.84,South,174,4.0,10.0,93,0.00,,CLR,0.00,VWS V14.01,2013-02-18 14:25:00,
2013-02-18 09:30:00,15.3,13.6,29.84,ESE,120,1.0,4.0,93,0.00,,CLR,0.00,VWS V14.01,2013-02-18 14:30:00,
2013-02-18 09:35:00,15.3,13.6,29.84,North,355,0.0,3.0,93,0.00,,CLR,0.00,VWS V14.01,2013-02-18 14:35:00,
2013-02-18 09:40:00,15.3,13.6,29.84,South,178,2.0,3.0,93,0.00,,CLR,0.00,VWS V14.01,2013-02-18 14:40:00,
2013-02-18 09:45:00,15.3,13.6,29.85,SSE,153,1.0,2.0,93,0.00,,CLR,0.00,VWS V14.01,2013-02-18 14:45:00,
2013-02-18 09:50:00,15.4,13.7,29.84,ENE,61,0.0,1.0,93,0.00,,CLR,0.00,VWS V14.01,2013-02-18 14:50:00,
2013-02-18 09:55:00,15.4,13.7,29.84,South,177,0.0,5.0,93,0.00,,CLR,0.00,VWS V14.01,2013-02-18 14:55:00,
2013-02-18 10:00:00,15.4,13.5,29.84,South,172,1.0,5.0,92,0.00,,CLR,0.00,VWS V14.01,2013-02-18 15:00:00,
2013-02-18 10:05:00,15.5,13.6,29.85,East,99,1.0,3.0,92,0.00,,CLR,0.00,VWS V14.01,2013-02-18 15:05:00,
2013-02-18 10:10:00,15.5,13.6,29.85,North,360,3.0,10.0,92,0.00,,CLR,0.00,VWS V14.01,2013-02-18 15:10:00,
2013-02-18 10:15:00,15.6,13.7,29.85,NW,305,0.0,3.0,92,0.00,,CLR,0.00,VWS V14.01,2013-02-18 15:15:00,
2013-02-18 10:20:00,15.7,14.0,29.85,NNE,15,2.0,4.0,93,0.00,,CLR,0.00,VWS V14.01,2013-02-18 15:20:00,
2013-02-18 10:25:00,15.7,14.0,29.85,South,180,0.0,3.0,93,0.00,,CLR,0.00,VWS V14.01,2013-02-18 15:25:00,
2013-02-18 10:30:00,15.8,14.1,29.85,South,171,5.0,7.0,93,0.00,,CLR,0.00,VWS V14.01,2013-02-18 15:30:00,
2013-02-18 10:35:00,15.8,14.1,29.85,ESE,105,4.0,9.0,93,0.00,,CLR,0.00,VWS V14.01,2013-02-18 15:35:00,
2013-02-18 10:40:00,15.9,14.2,29.85,South,175,1.0,3.0,93,0.00,,CLR,0.00,VWS V14.01,2013-02-18 15:40:00,
2013-02-18 10:45:00,16.0,14.3,29.85,South,183,3.0,5.0,93,0.00,,CLR,0.00,VWS V14.01,2013-02-18 15:45:00,
2013-02-18 10:50:00,16.0,14.3,29.85,South,187,1.0,6.0,93,0.00,,CLR,0.00,VWS V14.01,2013-02-18 15:50:00,
2013-02-18 10:55:00,16.1,14.4,29.85,South,186,4.0,9.0,93,0.00,,CLR,0.00,VWS V14.01,2013-02-18 15:55:00,
2013-02-18 11:00:00,16.2,14.5,29.85,South,188,0.0,4.0,93,0.00,,CLR,0.00,VWS V14.01,2013-02-18 16:00:00,
2013-02-18 11:05:00,16.2,14.5,29.85,South,186,2.0,4.0,93,0.00,,CLR,0.00,VWS V14.01,2013-02-18 16:05:00,
2013-02-18 11:10:00,16.3,14.6,29.85,South,171,2.0,3.0,93,0.00,,CLR,0.00,VWS V14.01,2013-02-18 16:10:00,
2013-02-18 11:15:00,16.4,14.7,29.85,NE,38,2.0,4.0,93,0.00,,CLR,0.00,VWS V14.01,2013-02-18 16:15:00,
2013-02-18 11:20:00,16.4,14.7,29.85,South,178,3.0,7.0,93,0.00,,CLR,0.00,VWS V14.01,2013-02-18 16:20:00,
2013-02-18 11:25:00,16.6,14.9,29.85,South,188,2.0,5.0,93,0.00,,CLR,0.00,VWS V14.01,2013-02-18 16:25:00,
2013-02-18 11:30:00,16.6,14.9,29.85,South,171,2.0,9.0,93,0.00,,CLR,0.00,VWS V14.01,2013-02-18 16:30:00,
2013-02-18 11:35:00,16.7,15.0,29.85,South,180,0.0,2.0,93,0.00,,CLR,0.00,VWS V14.01,2013-02-18 16:35:00,
2013-02-18 11:40:00,16.8,15.1,29.85,SSE,164,4.0,11.0,93,0.00,,CLR,0.00,VWS V14.01,2013-02-18 16:40:00,
2013-02-18 11:45:00,16.8,15.1,29.86,South,174,1.0,5.0,93,0.00,,CLR,0.00,VWS V14.01,2013-02-18 16:45:00,
2013-02-18 11:50:00,16.9,15.2,29.86,SSE,168,4.0,11.0,93,0.00,,CLR,0.00,VWS V14.01,2013-02-18 16:50:00,
2013-02-18 11:55:00,17.0,15.3,29.86,South,175,3.0,5.0,93,0.00,,CLR,0.00,VWS V14.01,2013-02-18 16:55:00,
2013-02-18 12:00:00,17.1,15.4,29.86,ENE,65,5.0,7.0,93,0.00,,CLR,0.00,VWS V14.01,2013-02-18 17:00:00,
2013-02-18 12:05:00,17.2,15.5,29.86,East,98,1.0,9.0,93,0.00,,CLR,0.00,VWS V14.01,2013-02-18 17:05:00,
2013-02-18 12:10:00,17.3,15.6,29.86,South,179,4.0,9.0,93,0.00,,CLR,0.00,VWS V14.01,2013-02-18 17:10:00,
2013-02-18 12:15:00,17.4,15.7,29.86,SSE,158,6.0,6.0,93,0.00,,CLR,0.00,VWS V14.01,2013-02-18 17:15:00,
2013-02-18 12:20:00,17.5,15.8,29.85,NNW,333,0.0,2.0,93,0.00,,CLR,0.00,VWS V14.01,2013-02-18 17:20:00,
2013-02-18 12:25:00,17.6,15.9,29.86,South,182,0.0,1.0,93,0.00,,CLR,0.00,VWS V14.01,2013-02-18 17:25:00,
2013-02-18 12:30:00,17.7,16.0,29.85,South,185,5.0,11.0,93,0.00,,CLR,0.00,VWS V14.01,2013-02-18 17:30:00,
2013-02-18 12:35:00,17.8,16.1,29.85,SE,138,4.0,5.0,93,0.00,,CLR,0.00,VWS V14.01,2013-02-18 17:35:00,
2013-02-18 12:40:00,17.9,16.2,29.86,South,174,2.0,4.0,93,0.00,,CLR,0.00,VWS V14.01,2013-02-18 17:40:00,
2013-02-18 12:45:00,18.0,16.3,29.85,NNW,340,2.0,6.0,93,0.00,,CLR,0.00,VWS V14.01,2013-02-18 17:45:00,
2013-02-18 12:50:00,18.1,16.4,29.85,North,355,2.0,2.0,93,0.00,,CLR,0.00,VWS V14.01,2013-02-18 17:50:00,
2013-02-18 12:55:00,18.2,16.5,29.85,South,169,4.0,5.0,93,0.00,,CLR,0.00,VWS V14.01,2013-02-18 17:55:00,
2013-02-18 13:00:00,18.3,16.9,29.86,SE,130,12.0,12.0,94,0.00,,CLR,0.00,VWS V14.01,2013-02-18 18:00:00,
2013-02-18 13:05:00,18.4,17.0,29.86,SSW,192,7.0,7.0,94,0.00,,CLR,0.00,VWS V14.01,2013-02-18 18:05:00,
2013-02-18 13:10:00,18.5,16.8,29.86,WSW,250,4.0,4.0,93,0.00,,CLR,0.00,VWS V14.01,2013-02-18 18:10:00,
2013-02-18 13:15:00,18.6,17.2,29.86,North,355,3.0,3.0,94,0.00,,CLR,0.00,VWS V14.01,2013-02-18 18:15:00,
2013-02-18 13:20:00,18.8,17.4,29.86,North,355,3.0,3.0,94,0.00,,CLR,0.00,VWS V14.01,2013-02-18 18:20:00,
2013-02-18 13:25:00,18.9,17.5,29.86,South,173,2.0,5.0,94,0.00,,CLR,0.00,VWS V14.01,2013-02-18 18:25:00,
2013-02-18 13:30:00,19.0,17.6,29.86,NNW,346,9.0,9.0,94,0.00,,CLR,0.00,VWS V14.01,2013-02-18 18:30:00,
2013-02-18 13:35:00,19.1,17.7,29.86,North,5,4.0,4.0,94,0.00,,CLR,0.00,VWS V14.01,2013-02-18 18:35:00,
2013-02-18 13:40:00,19.3,17.9,29.86,SSE,148,7.0,7.0,94,0.00,,CLR,0.00,VWS V14.01,2013-02-18 18:40:00,
2013-02-18 13:45:00,19.4,18.0,29.86,SSE,160,5.0,6.0,94,0.00,,CLR,0.00,VWS V14.01,2013-02-18 18:45:00,
2013-02-18 13:50:00,19.6,18.2,29.86,South,180,1.0,4.0,94,0.00,,CLR,0.00,VWS V14.01,2013-02-18 18:50:00,
2013-02-18 13:55:00,19.7,18.3,29.87,South,179,5.0,5.0,94,0.00,,CLR,0.00,VWS V14.01,2013-02-18 18:55:00,
2013-02-18 14:00:00,19.7,18.3,29.87,North,355,4.0,6.0,94,0.00,,CLR,0.00,VWS V14.01,2013-02-18 19:00:00,
2013-02-18 14:05:00,19.9,18.5,29.87,South,171,4.0,5.0,94,0.00,,CLR,0.00,VWS V14.01,2013-02-18 19:05:00,
2013-02-18 14:10:00,20.1,18.6,29.87,South,173,0.0,2.0,94,0.00,,CLR,0.00,VWS V14.01,2013-02-18 19:10:00,
2013-02-18 14:15:00,20.2,18.8,29.87,South,171,3.0,4.0,94,0.00,,CLR,0.00,VWS V14.01,2013-02-18 19:15:00,
2013-02-18 14:20:00,20.4,19.0,29.87,SSE,159,3.0,6.0,94,0.00,,CLR,0.00,VWS V14.01,2013-02-18 19:20:00,
2013-02-18 14:25:00,20.6,19.1,29.87,South,174,2.0,4.0,94,0.00,,CLR,0.00,VWS V14.01,2013-02-18 19:25:00,
2013-02-18 14:30:00,20.7,19.2,29.87,NNW,329,1.0,4.0,94,0.00,,CLR,0.00,VWS V14.01,2013-02-18 19:30:00,
2013-02-18 14:35:00,20.9,19.5,29.87,South,175,4.0,6.0,94,0.00,,CLR,0.00,VWS V14.01,2013-02-18 19:35:00,
2013-02-18 14:40:00,21.0,19.5,29.88,South,180,5.0,5.0,94,0.00,,CLR,0.00,VWS V14.01,2013-02-18 19:40:00,
2013-02-18 14:45:00,21.2,20.0,29.88,SSE,154,2.0,2.0,95,0.00,,CLR,0.00,VWS V14.01,2013-02-18 19:45:00,
2013-02-18 14:50:00,21.3,20.1,29.88,South,182,2.0,4.0,95,0.00,,CLR,0.00,VWS V14.01,2013-02-18 19:50:00,
2013-02-18 14:55:00,21.5,20.3,29.88,SSE,168,1.0,3.0,95,0.00,,CLR,0.00,VWS V14.01,2013-02-18 19:55:00,
2013-02-18 15:00:00,21.7,20.5,29.89,SE,134,1.0,7.0,95,0.01,,CLR,0.01,VWS V14.01,2013-02-18 20:00:00,
2013-02-18 15:05:00,21.8,20.6,29.89,SSE,152,1.0,6.0,95,0.01,,CLR,0.01,VWS V14.01,2013-02-18 20:05:00,
2013-02-18 15:10:00,22.0,20.8,29.89,SSW,197,0.0,5.0,95,0.01,,CLR,0.01,VWS V14.01,2013-02-18 20:10:00,
2013-02-18 15:15:00,22.2,21.0,29.89,South,188,4.0,9.0,95,0.01,,CLR,0.01,VWS V14.01,2013-02-18 20:15:00,
2013-02-18 15:20:00,22.3,21.1,29.89,South,182,7.0,7.0,95,0.01,,CLR,0.01,VWS V14.01,2013-02-18 20:20:00,
2013-02-18 15:25:00,22.5,21.3,29.89,South,171,0.0,0.0,95,0.02,,CLR,0.02,VWS V14.01,2013-02-18 20:25:00,
2013-02-18 15:30:00,22.6,21.4,29.89,SSE,153,0.0,9.0,95,0.02,,CLR,0.02,VWS V14.01,2013-02-18 20:30:00,
2013-02-18 15:35:00,22.8,21.6,29.89,South,169,4.0,5.0,95,0.02,,CLR,0.02,VWS V14.01,2013-02-18 20:35:00,
2013-02-18 15:40:00,23.0,21.8,29.90,South,180,3.0,8.0,95,0.02,,CLR,0.02,VWS V14.01,2013-02-18 20:40:00,
2013-02-18 15:45:00,23.2,22.0,29.90,South,171,0.0,0.0,95,0.03,,CLR,0.03,VWS V14.01,2013-02-18 20:45:00,
2013-02-18 15:50:00,23.4,22.2,29.90,South,180,2.0,3.0,95,0.03,,CLR,0.03,VWS V14.01,2013-02-18 20:50:00,
2013-02-18 15:55:00,23.6,22.6,29.90,South,181,0.0,1.0,96,0.03,,CLR,0.03,VWS V14.01,2013-02-18 20:55:00,
2013-02-18 16:00:00,23.8,22.8,29.90,NNW,346,1.0,1.0,96,0.02,,CLR,0.03,VWS V14.01,2013-02-18 21:00:00,
2013-02-18 16:05:00,24.0,23.0,29.90,South,175,3.0,3.0,96,0.02,,CLR,0.03,VWS V14.01,2013-02-18 21:05:00,
2013-02-18 16:10:00,24.2,23.2,29.90,SE,126,0.0,1.0,96,0.02,,CLR,0.03,VWS V14.01,2013-02-18 21:10:00,
2013-02-18 16:15:00,24.3,23.3,29.91,South,181,1.0,1.0,96,0.02,,CLR,0.03,VWS V14.01,2013-02-18 21:15:00,
2013-02-18 16:20:00,24.4,23.4,29.91,South,169,0.0,0.0,96,0.02,,CLR,0.03,VWS V14.01,2013-02-18 21:20:00,
2013-02-18 16:25:00,24.6,23.6,29.92,SSE,167,1.0,4.0,96,0.01,,CLR,0.03,VWS V14.01,2013-02-18 21:25:00,
2013-02-18 16:30:00,24.7,23.7,29.92,South,186,3.0,3.0,96,0.01,,CLR,0.03,VWS V14.01,2013-02-18 21:30:00,
2013-02-18 16:36:00,24.8,23.8,29.91,South,180,0.0,1.0,96,0.01,,CLR,0.03,VWS V14.01,2013-02-18 21:36:00,
2013-02-18 16:41:00,24.9,23.9,29.92,SSE,163,0.0,0.0,96,0.01,,CLR,0.03,VWS V14.01,2013-02-18 21:41:00,
2013-02-18 16:46:00,25.0,24.0,29.92,SSE,167,1.0,3.0,96,0.00,,CLR,0.03,VWS V14.01,2013-02-18 21:46:00,
2013-02-18 16:51:00,25.1,24.1,29.92,South,178,3.0,4.0,96,0.00,,CLR,0.03,VWS V14.01,2013-02-18 21:51:00,
2013-02-18 16:56:00,25.1,24.1,29.92,South,189,0.0,1.0,96,0.00,,CLR,0.03,VWS V14.01,2013-02-18 21:56:00,
2013-02-18 17:01:00,25.1,24.1,29.92,South,179,2.0,2.0,96,0.00,,CLR,0.03,VWS V14.01,2013-02-18 22:01:00,
2013-02-18 17:06:00,25.2,24.2,29.93,South,180,0.0,0.0,96,0.00,,CLR,0.03,VWS V14.01,2013-02-18 22:06:00,
2013-02-18 17:11:00,25.2,24.2,29.93,SSE,168,0.0,1.0,96,0.00,,CLR,0.03,VWS V14.01,2013-02-18 22:11:00,
2013-02-18 17:16:00,25.2,24.2,29.93,South,170,0.0,1.0,96,0.00,,CLR,0.03,VWS V14.01,2013-02-18 22:16:00,
2013-02-18 17:21:00,25.2,24.2,29.93,SSE,154,0.0,2.0,96,0.00,,CLR,0.03,VWS V14.01,2013-02-18 22:21:00,
2013-02-18 17:26:00,25.2,24.2,29.94,SSE,164,1.0,1.0,96,0.00,,CLR,0.03,VWS V14.01,2013-02-18 22:26:00,
2013-02-18 17:31:00,25.1,24.1,29.93,South,170,1.0,1.0,96,0.00,,CLR,0.03,VWS V14.01,2013-02-18 22:31:00,
2013-02-18 17:36:00,25.1,24.1,29.94,South,174,0.0,0.0,96,0.00,,CLR,0.03,VWS V14.01,2013-02-18 22:36:00,
2013-02-18 17:41:00,25.1,24.1,29.94,South,175,1.0,2.0,96,0.00,,CLR,0.03,VWS V14.01,2013-02-18 22:41:00,
2013-02-18 17:46:00,25.1,24.1,29.94,South,180,1.0,2.0,96,0.00,,CLR,0.03,VWS V14.01,2013-02-18 22:46:00,
2013-02-18 17:51:00,25.0,24.0,29.94,South,173,1.0,1.0,96,0.00,,CLR,0.03,VWS V14.01,2013-02-18 22:51:00,
2013-02-18 17:56:00,25.0,24.0,29.94,SSE,153,2.0,4.0,96,0.00,,CLR,0.03,VWS V14.01,2013-02-18 22:56:00,
2013-02-18 18:01:00,24.9,23.9,29.94,South,187,0.0,2.0,96,0.00,,CLR,0.03,VWS V14.01,2013-02-18 23:01:00,
2013-02-18 18:06:00,24.9,23.9,29.95,South,179,2.0,2.0,96,0.00,,CLR,0.03,VWS V14.01,2013-02-18 23:06:00,
2013-02-18 18:11:00,24.8,23.8,29.95,South,178,0.0,1.0,96,0.00,,CLR,0.03,VWS V14.01,2013-02-18 23:11:00,
2013-02-18 18:16:00,24.8,23.8,29.95,South,184,0.0,2.0,96,0.00,,CLR,0.03,VWS V14.01,2013-02-18 23:16:00,
2013-02-18 18:21:00,24.8,23.8,29.95,SSE,165,2.0,5.0,96,0.00,,CLR,0.03,VWS V14.01,2013-02-18 23:21:00,
2013-02-18 18:26:00,24.7,23.7,29.95,South,171,0.0,4.0,96,0.00,,CLR,0.03,VWS V14.01,2013-02-18 23:26:00,
2013-02-18 18:31:00,24.7,23.7,29.95,South,185,0.0,4.0,96,0.00,,CLR,0.03,VWS V14.01,2013-02-18 23:31:00,
2013-02-18 18:36:00,24.6,23.6,29.95,SSE,167,0.0,5.0,96,0.00,,CLR,0.03,VWS V14.01,2013-02-18 23:36:00,
2013-02-18 18:41:00,24.5,23.5,29.95,South,172,2.0,3.0,96,0.00,,CLR,0.03,VWS V14.01,2013-02-18 23:41:00,
2013-02-18 18:46:00,24.5,23.5,29.95,South,180,1.0,1.0,96,0.00,,CLR,0.03,VWS V14.01,2013-02-18 23:46:00,
2013-02-18 18:51:00,24.4,23.4,29.95,South,176,3.0,4.0,96,0.00,,CLR,0.03,VWS V14.01,2013-02-18 23:51:00,
2013-02-18 18:56:00,24.4,23.4,29.96,South,175,2.0,3.0,96,0.00,,CLR,0.03,VWS V14.01,2013-02-18 23:56:00,
2013-02-18 19:01:00,24.3,23.3,29.96,South,170,0.0,3.0,96,0.00,,CLR,0.03,VWS V14.01,2013-02-19 00:01:00,
2013-02-18 19:06:00,24.3,23.3,29.96,South,174,3.0,3.0,96,0.00,,CLR,0.03,VWS V14.01,2013-02-19 00:06:00,
2013-02-18 19:11:00,24.2,23.2,29.96,South,174,2.0,2.0,96,0.00,,CLR,0.03,VWS V14.01,2013-02-19 00:11:00,
2013-02-18 19:16:00,24.2,23.2,29.96,South,173,0.0,1.0,96,0.00,,CLR,0.03,VWS V14.01,2013-02-19 00:16:00,
2013-02-18 19:21:00,24.1,23.1,29.96,South,179,1.0,3.0,96,0.00,,CLR,0.03,VWS V14.01,2013-02-19 00:21:00,
2013-02-18 19:26:00,24.1,23.1,29.97,South,173,0.0,2.0,96,0.00,,CLR,0.03,VWS V14.01,2013-02-19 00:26:00,
2013-02-18 19:31:00,24.0,23.0,29.97,South,173,1.0,4.0,96,0.00,,CLR,0.03,VWS V14.01,2013-02-19 00:31:00,
2013-02-18 19:36:00,24.0,22.8,29.97,WSW,251,0.0,4.0,95,0.00,,CLR,0.03,VWS V14.01,2013-02-19 00:36:00,
2013-02-18 19:41:00,24.0,22.8,29.97,South,180,2.0,5.0,95,0.00,,CLR,0.03,VWS V14.01,2013-02-19 00:41:00,
2013-02-18 19:46:00,23.9,22.7,29.97,South,170,1.0,5.0,95,0.00,,CLR,0.03,VWS V14.01,2013-02-19 00:46:00,
2013-02-18 19:51:00,23.9,22.7,29.97,South,173,0.0,2.0,95,0.00,,CLR,0.03,VWS V14.01,2013-02-19 00:51:00,
2013-02-18 19:56:00,23.8,22.6,29.97,SSE,161,0.0,0.0,95,0.00,,CLR,0.03,VWS V14.01,2013-02-19 00:56:00,
2013-02-18 20:01:00,23.8,22.6,29.97,South,169,0.0,1.0,95,0.00,,CLR,0.03,VWS V14.01,2013-02-19 01:01:00,
2013-02-18 20:06:00,23.8,22.6,29.97,South,171,0.0,0.0,95,0.00,,CLR,0.03,VWS V14.01,2013-02-19 01:06:00,
2013-02-18 20:11:00,23.7,22.7,29.97,South,171,0.0,0.0,96,0.00,,CLR,0.03,VWS V14.01,2013-02-19 01:11:00,
2013-02-18 20:16:00,23.7,22.7,29.98,South,169,0.0,0.0,96,0.00,,CLR,0.03,VWS V14.01,2013-02-19 01:16:00,
2013-02-18 20:21:00,23.7,22.7,29.98,South,171,0.0,0.0,96,0.00,,CLR,0.03,VWS V14.01,2013-02-19 01:21:00,
2013-02-18 20:26:00,23.6,22.4,29.98,South,171,0.0,0.0,95,0.00,,CLR,0.03,VWS V14.01,2013-02-19 01:26:00,
2013-02-18 20:31:00,23.6,22.4,29.99,South,171,0.0,0.0,95,0.00,,CLR,0.03,VWS V14.01,2013-02-19 01:31:00,
2013-02-18 20:36:00,23.5,22.3,29.99,South,171,0.0,0.0,95,0.00,,CLR,0.03,VWS V14.01,2013-02-19 01:36:00,
2013-02-18 20:41:00,23.5,22.3,29.99,North,355,4.0,5.0,95,0.00,,CLR,0.03,VWS V14.01,2013-02-19 01:41:00,
2013-02-18 20:46:00,23.4,22.2,29.99,North,355,0.0,0.0,95,0.00,,CLR,0.03,VWS V14.01,2013-02-19 01:46:00,
2013-02-18 20:51:00,23.4,22.2,29.99,North,355,0.0,1.0,95,0.00,,CLR,0.03,VWS V14.01,2013-02-19 01:51:00,
2013-02-18 20:56:00,23.3,22.1,29.99,West,261,1.0,1.0,95,0.00,,CLR,0.03,VWS V14.01,2013-02-19 01:56:00,
2013-02-18 21:01:00,23.3,22.1,29.99,West,261,0.0,0.0,95,0.00,,CLR,0.03,VWS V14.01,2013-02-19 02:01:00,
2013-02-18 21:06:00,23.2,22.0,29.99,SW,236,0.0,0.0,95,0.00,,CLR,0.03,VWS V14.01,2013-02-19 02:06:00,
2013-02-18 21:11:00,23.1,21.9,29.99,SSE,157,0.0,2.0,95,0.00,,CLR,0.03,VWS V14.01,2013-02-19 02:11:00,
2013-02-18 21:16:00,23.1,21.9,29.99,SSE,157,0.0,1.0,95,0.00,,CLR,0.03,VWS V14.01,2013-02-19 02:16:00,
2013-02-18 21:21:00,23.0,21.8,29.99,South,171,1.0,1.0,95,0.00,,CLR,0.03,VWS V14.01,2013-02-19 02:21:00,
2013-02-18 21:26:00,23.0,21.8,29.99,North,9,1.0,2.0,95,0.00,,CLR,0.03,VWS V14.01,2013-02-19 02:26:00,
2013-02-18 21:31:00,22.9,21.7,29.99,South,170,0.0,0.0,95,0.00,,CLR,0.03,VWS V14.01,2013-02-19 02:31:00,
2013-02-18 21:36:00,22.9,21.7,29.99,South,169,0.0,2.0,95,0.00,,CLR,0.03,VWS V14.01,2013-02-19 02:36:00,
2013-02-18 21:41:00,22.8,21.6,29.99,North,11,0.0,1.0,95,0.00,,CLR,0.03,VWS V14.01,2013-02-19 02:41:00,
2013-02-18 21:46:00,22.7,21.5,29.99,SSE,155,0.0,1.0,95,0.00,,CLR,0.03,VWS V14.01,2013-02-19 02:46:00,
2013-02-18 21:51:00,22.7,21.5,30.00,SSE,155,0.0,0.0,95,0.00,,CLR,0.03,VWS V14.01,2013-02-19 02:51:00,
2013-02-18 21:56:00,22.6,21.4,30.00,SSE,158,0.0,0.0,95,0.00,,CLR,0.03,VWS V14.01,2013-02-19 02:56:00,
2013-02-18 22:01:00,22.6,21.4,30.00,SSE,158,0.0,0.0,95,0.00,,CLR,0.03,VWS V14.01,2013-02-19 03:01:00,
2013-02-18 22:06:00,22.5,21.3,30.00,SSE,158,0.0,0.0,95,0.00,,CLR,0.03,VWS V14.01,2013-02-19 03:06:00,
2013-02-18 22:11:00,22.4,21.2,30.01,SSE,158,0.0,0.0,95,0.00,,CLR,0.03,VWS V14.01,2013-02-19 03:11:00,
2013-02-18 22:16:00,22.4,21.2,30.01,South,169,1.0,2.0,95,0.00,,CLR,0.03,VWS V14.01,2013-02-19 03:16:00,
2013-02-18 22:21:00,22.3,21.1,30.01,South,169,3.0,3.0,95,0.00,,CLR,0.03,VWS V14.01,2013-02-19 03:21:00,
2013-02-18 22:26:00,22.3,21.1,30.01,South,169,0.0,2.0,95,0.00,,CLR,0.03,VWS V14.01,2013-02-19 03:26:00,
2013-02-18 22:31:00,22.2,21.0,30.02,South,169,0.0,0.0,95,0.00,,CLR,0.03,VWS V14.01,2013-02-19 03:31:00,
2013-02-18 22:36:00,22.1,20.9,30.01,South,169,0.0,0.0,95,0.00,,CLR,0.03,VWS V14.01,2013-02-19 03:36:00,
2013-02-18 22:41:00,22.1,20.9,30.01,South,169,0.0,0.0,95,0.00,,CLR,0.03,VWS V14.01,2013-02-19 03:41:00,
2013-02-18 22:46:00,22.0,20.8,30.01,South,169,0.0,0.0,95,0.00,,CLR,0.03,VWS V14.01,2013-02-19 03:46:00,
2013-02-18 22:51:00,22.0,20.8,30.01,South,169,0.0,0.0,95,0.00,,CLR,0.03,VWS V14.01,2013-02-19 03:51:00,
2013-02-18 22:56:00,22.0,20.8,30.01,South,169,2.0,2.0,95,0.00,,CLR,0.03,VWS V14.01,2013-02-19 03:56:00,
2013-02-18 23:01:00,21.9,20.7,30.02,South,169,0.0,0.0,95,0.00,,CLR,0.03,VWS V14.01,2013-02-19 04:01:00,
2013-02-18 23:06:00,21.8,20.6,30.02,South,169,0.0,0.0,95,0.00,,CLR,0.03,VWS V14.01,2013-02-19 04:06:00,
2013-02-18 23:12:00,21.8,20.6,30.01,South,169,0.0,0.0,95,0.00,,CLR,0.03,VWS V14.01,2013-02-19 04:12:00,
2013-02-18 23:17:00,21.7,20.5,30.02,South,169,0.0,0.0,95,0.00,,CLR,0.03,VWS V14.01,2013-02-19 04:17:00,
2013-02-18 23:22:00,21.7,20.5,30.01,South,169,0.0,0.0,95,0.00,,CLR,0.03,VWS V14.01,2013-02-19 04:22:00,
2013-02-18 23:27:00,21.6,20.4,30.01,South,169,0.0,0.0,95,0.00,,CLR,0.03,VWS V14.01,2013-02-19 04:27:00,
2013-02-18 23:32:00,21.6,20.4,30.01,South,169,0.0,0.0,95,0.00,,CLR,0.03,VWS V14.01,2013-02-19 04:32:00,
2013-02-18 23:37:00,21.5,20.3,30.01,South,169,0.0,0.0,95,0.00,,CLR,0.03,VWS V14.01,2013-02-19 04:37:00,
2013-02-18 23:42:00,21.4,20.2,30.01,South,169,0.0,0.0,95,0.00,,CLR,0.03,VWS V14.01,2013-02-19 04:42:00,
2013-02-18 23:47:00,21.3,20.1,30.01,South,169,0.0,0.0,95,0.00,,CLR,0.03,VWS V14.01,2013-02-19 04:47:00,
2013-02-18 23:52:00,21.3,20.1,30.01,South,169,0.0,0.0,95,0.00,,CLR,0.03,VWS V14.01,2013-02-19 04:52:00,
2013-02-18 23:57:00,21.2,20.0,30.02,South,169,0.0,0.0,95,0.00,,CLR,0.03,VWS V14.01,2013-02-19 04:57:00,